sensor_id;sensor_type;location;lat;lon;timestamp;pressure;altitude;pressure_sealevel;temperature;humidity
11448;BME280;43755;49.736;8.734;2024-01-30T00:01:50;99146.97;;;3.13;100.00
11448;BME280;43755;49.736;8.734;2024-01-30T00:03:53;99143.47;;;3.05;100.00
11448;BME280;43755;49.736;8.734;2024-01-30T00:05:55;99152.19;;;3.06;100.00
11448;BME280;43755;49.736;8.734;2024-01-30T00:07:56;99149.56;;;3.07;100.00
11448;BME280;43755;49.736;8.734;2024-01-30T00:09:57;99153.03;;;3.05;100.00
11448;BME280;43755;49.736;8.734;2024-01-30T00:11:58;99161.75;;;3.04;100.00
11448;BME280;43755;49.736;8.734;2024-01-30T00:13:59;99148.66;;;2.99;100.00
11448;BME280;43755;49.736;8.734;2024-01-30T00:16:01;99146.94;;;3.04;100.00
11448;BME280;43755;49.736;8.734;2024-01-30T00:18:02;99141.69;;;3.01;100.00
11448;BME280;43755;49.736;8.734;2024-01-30T00:20:06;99146.09;;;3.08;100.00
11448;BME280;43755;49.736;8.734;2024-01-30T00:22:09;99147.81;;;3.03;100.00
11448;BME280;43755;49.736;8.734;2024-01-30T00:24:10;99146.94;;;3.00;100.00
11448;BME280;43755;49.736;8.734;2024-01-30T00:26:12;99146.88;;;2.95;100.00
11448;BME280;43755;49.736;8.734;2024-01-30T00:28:14;99142.56;;;2.99;100.00
11448;BME280;43755;49.736;8.734;2024-01-30T00:30:16;99141.69;;;2.98;100.00
11448;BME280;43755;49.736;8.734;2024-01-30T00:32:17;99151.25;;;2.96;100.00
11448;BME280;43755;49.736;8.734;2024-01-30T00:34:20;99148.59;;;2.88;100.00
11448;BME280;43755;49.736;8.734;2024-01-30T00:36:23;99153.78;;;2.81;100.00
11448;BME280;43755;49.736;8.734;2024-01-30T00:38:24;99144.19;;;2.81;100.00
11448;BME280;43755;49.736;8.734;2024-01-30T00:40:24;99144.19;;;2.83;100.00
11448;BME280;43755;49.736;8.734;2024-01-30T00:42:26;99148.59;;;2.88;100.00
11448;BME280;43755;49.736;8.734;2024-01-30T00:44:27;99150.34;;;2.91;100.00
11448;BME280;43755;49.736;8.734;2024-01-30T00:46:28;99149.44;;;2.89;100.00
11448;BME280;43755;49.736;8.734;2024-01-30T00:48:29;99139.06;;;2.94;100.00
11448;BME280;43755;49.736;8.734;2024-01-30T00:50:29;99153.84;;;2.95;100.00
11448;BME280;43755;49.736;8.734;2024-01-30T00:52:32;99144.31;;;3.00;100.00
11448;BME280;43755;49.736;8.734;2024-01-30T00:54:34;99143.56;;;3.28;100.00
11448;BME280;43755;49.736;8.734;2024-01-30T00:56:35;99149.72;;;3.42;100.00
11448;BME280;43755;49.736;8.734;2024-01-30T00:58:35;99139.34;;;3.65;100.00
11448;BME280;43755;49.736;8.734;2024-01-30T01:00:37;99142.00;;;3.89;100.00
11448;BME280;43755;49.736;8.734;2024-01-30T01:02:37;99143.75;;;3.90;100.00
11448;BME280;43755;49.736;8.734;2024-01-30T01:04:39;99149.03;;;3.99;100.00
11448;BME280;43755;49.736;8.734;2024-01-30T01:06:40;99144.66;;;3.98;100.00
11448;BME280;43755;49.736;8.734;2024-01-30T01:08:45;99151.63;;;4.01;100.00
11448;BME280;43755;49.736;8.734;2024-01-30T01:10:46;99153.38;;;4.03;100.00
11448;BME280;43755;49.736;8.734;2024-01-30T01:12:48;99144.63;;;3.89;100.00
11448;BME280;43755;49.736;8.734;2024-01-30T01:14:48;99149.91;;;4.09;100.00
11448;BME280;43755;49.736;8.734;2024-01-30T01:16:50;99143.81;;;4.24;100.00
11448;BME280;43755;49.736;8.734;2024-01-30T01:18:51;99144.66;;;4.30;100.00
11448;BME280;43755;49.736;8.734;2024-01-30T01:20:53;99150.81;;;4.29;100.00
11448;BME280;43755;49.736;8.734;2024-01-30T01:22:54;99150.78;;;4.26;100.00
11448;BME280;43755;49.736;8.734;2024-01-30T01:24:57;99149.91;;;4.26;100.00
11448;BME280;43755;49.736;8.734;2024-01-30T01:26:58;99142.03;;;4.13;100.00
11448;BME280;43755;49.736;8.734;2024-01-30T01:28:59;99141.19;;;4.18;100.00
11448;BME280;43755;49.736;8.734;2024-01-30T01:31:01;99147.28;;;4.26;100.00
11448;BME280;43755;49.736;8.734;2024-01-30T01:33:05;99144.66;;;4.10;100.00
11448;BME280;43755;49.736;8.734;2024-01-30T01:35:06;99151.66;;;4.10;100.00
11448;BME280;43755;49.736;8.734;2024-01-30T01:37:08;99150.75;;;4.03;100.00
11448;BME280;43755;49.736;8.734;2024-01-30T01:39:09;99141.13;;;3.84;100.00
11448;BME280;43755;49.736;8.734;2024-01-30T01:41:12;99143.69;;;3.63;100.00
11448;BME280;43755;49.736;8.734;2024-01-30T01:43:13;99139.28;;;3.45;100.00
11448;BME280;43755;49.736;8.734;2024-01-30T01:45:14;99140.09;;;3.32;100.00
11448;BME280;43755;49.736;8.734;2024-01-30T01:47:15;99141.75;;;3.13;100.00
11448;BME280;43755;49.736;8.734;2024-01-30T01:49:17;99149.56;;;3.04;100.00
11448;BME280;43755;49.736;8.734;2024-01-30T01:51:19;99143.47;;;3.08;100.00
11448;BME280;43755;49.736;8.734;2024-01-30T01:53:21;99139.09;;;3.03;100.00
11448;BME280;43755;49.736;8.734;2024-01-30T01:55:22;99142.59;;;3.05;100.00
11448;BME280;43755;49.736;8.734;2024-01-30T01:57:26;99141.78;;;3.19;100.00
11448;BME280;43755;49.736;8.734;2024-01-30T01:59:28;99134.75;;;3.06;100.00
11448;BME280;43755;49.736;8.734;2024-01-30T02:01:31;99141.72;;;3.07;100.00
11448;BME280;43755;49.736;8.734;2024-01-30T02:03:33;99135.59;;;3.04;100.00
11448;BME280;43755;49.736;8.734;2024-01-30T02:05:36;99136.44;;;2.97;100.00
11448;BME280;43755;49.736;8.734;2024-01-30T02:07:38;99137.25;;;2.86;100.00
11448;BME280;43755;49.736;8.734;2024-01-30T02:09:40;99139.91;;;2.93;100.00
11448;BME280;43755;49.736;8.734;2024-01-30T02:11:40;99132.84;;;2.76;100.00
11448;BME280;43755;49.736;8.734;2024-01-30T02:13:44;99131.03;;;2.68;100.00
11448;BME280;43755;49.736;8.734;2024-01-30T02:15:49;99137.97;;;2.61;100.00
11448;BME280;43755;49.736;8.734;2024-01-30T02:17:50;99129.25;;;2.59;100.00
11448;BME280;43755;49.736;8.734;2024-01-30T02:19:52;99129.25;;;2.65;100.00
11448;BME280;43755;49.736;8.734;2024-01-30T02:21:55;99135.47;;;2.76;100.00
11448;BME280;43755;49.736;8.734;2024-01-30T02:23:57;99133.72;;;2.83;100.00
11448;BME280;43755;49.736;8.734;2024-01-30T02:25:59;99138.13;;;2.87;100.00
11448;BME280;43755;49.736;8.734;2024-01-30T02:28:01;99138.09;;;2.84;100.00
11448;BME280;43755;49.736;8.734;2024-01-30T02:30:03;99130.38;;;3.04;100.00
11448;BME280;43755;49.736;8.734;2024-01-30T02:32:05;99139.16;;;3.12;100.00
11448;BME280;43755;49.736;8.734;2024-01-30T02:34:07;99131.25;;;3.07;100.00
11448;BME280;43755;49.736;8.734;2024-01-30T02:36:09;99131.22;;;2.98;100.00
11448;BME280;43755;49.736;8.734;2024-01-30T02:38:11;99131.22;;;2.98;100.00
11448;BME280;43755;49.736;8.734;2024-01-30T02:40:13;99128.56;;;2.91;100.00
11448;BME280;43755;49.736;8.734;2024-01-30T02:42:14;99137.28;;;2.96;100.00
11448;BME280;43755;49.736;8.734;2024-01-30T02:44:16;99140.75;;;2.87;100.00
11448;BME280;43755;49.736;8.734;2024-01-30T02:46:17;99139.00;;;2.86;100.00
11448;BME280;43755;49.736;8.734;2024-01-30T02:48:19;99133.81;;;2.95;100.00
11448;BME280;43755;49.736;8.734;2024-01-30T02:50:20;99133.84;;;3.01;100.00
11448;BME280;43755;49.736;8.734;2024-01-30T02:52:21;99130.38;;;3.02;100.00
11448;BME280;43755;49.736;8.734;2024-01-30T02:54:24;99134.72;;;2.99;100.00
11448;BME280;43755;49.736;8.734;2024-01-30T02:56:25;99138.25;;;3.08;100.00
11448;BME280;43755;49.736;8.734;2024-01-30T02:58:27;99133.00;;;3.07;100.00
11448;BME280;43755;49.736;8.734;2024-01-30T03:00:28;99134.75;;;3.06;100.00
11448;BME280;43755;49.736;8.734;2024-01-30T03:02:29;99133.03;;;3.11;100.00
11448;BME280;43755;49.736;8.734;2024-01-30T03:04:31;99126.91;;;3.08;100.00
11448;BME280;43755;49.736;8.734;2024-01-30T03:06:33;99132.06;;;2.91;100.00
11448;BME280;43755;49.736;8.734;2024-01-30T03:08:33;99132.94;;;2.96;100.00
11448;BME280;43755;49.736;8.734;2024-01-30T03:10:36;99133.72;;;2.78;100.00
11448;BME280;43755;49.736;8.734;2024-01-30T03:12:38;99129.38;;;2.76;100.00
11448;BME280;43755;49.736;8.734;2024-01-30T03:14:39;99131.09;;;2.75;100.00
11448;BME280;43755;49.736;8.734;2024-01-30T03:16:40;99128.41;;;2.65;100.00
11448;BME280;43755;49.736;8.734;2024-01-30T03:18:42;99129.28;;;2.64;100.00
11448;BME280;43755;49.736;8.734;2024-01-30T03:20:43;99121.41;;;2.59;100.00
11448;BME280;43755;49.736;8.734;2024-01-30T03:22:45;99123.19;;;2.63;100.00
11448;BME280;43755;49.736;8.734;2024-01-30T03:24:46;99129.25;;;2.62;100.00
11448;BME280;43755;49.736;8.734;2024-01-30T03:26:49;99124.84;;;2.52;100.00
11448;BME280;43755;49.736;8.734;2024-01-30T03:28:50;99129.22;;;2.56;100.00
11448;BME280;43755;49.736;8.734;2024-01-30T03:30:51;99130.84;;;2.42;100.00
11448;BME280;43755;49.736;8.734;2024-01-30T03:32:52;99129.09;;;2.39;100.00
11448;BME280;43755;49.736;8.734;2024-01-30T03:34:53;99124.72;;;2.37;100.00
11448;BME280;43755;49.736;8.734;2024-01-30T03:36:55;99125.53;;;2.31;100.00
11448;BME280;43755;49.736;8.734;2024-01-30T03:38:56;99128.13;;;2.27;100.00
11448;BME280;43755;49.736;8.734;2024-01-30T03:40:58;99131.59;;;2.26;100.00
11448;BME280;43755;49.736;8.734;2024-01-30T03:43:01;99131.59;;;2.23;100.00
11448;BME280;43755;49.736;8.734;2024-01-30T03:45:03;99128.88;;;2.14;100.00
11448;BME280;43755;49.736;8.734;2024-01-30T03:47:05;99138.44;;;2.10;100.00
11448;BME280;43755;49.736;8.734;2024-01-30T03:49:06;99136.66;;;2.08;100.00
11448;BME280;43755;49.736;8.734;2024-01-30T03:51:08;99141.00;;;2.04;100.00
11448;BME280;43755;49.736;8.734;2024-01-30T03:53:14;99124.47;;;2.05;100.00
11448;BME280;43755;49.736;8.734;2024-01-30T03:55:15;99128.78;;;2.00;100.00
11448;BME280;43755;49.736;8.734;2024-01-30T03:57:16;99132.31;;;2.05;100.00
11448;BME280;43755;49.736;8.734;2024-01-30T03:59:19;99135.78;;;2.04;100.00
11448;BME280;43755;49.736;8.734;2024-01-30T04:01:24;99132.22;;;2.00;100.00
11448;BME280;43755;49.736;8.734;2024-01-30T04:03:25;99131.34;;;1.94;100.00
11448;BME280;43755;49.736;8.734;2024-01-30T04:05:26;99134.84;;;1.97;100.00
11448;BME280;43755;49.736;8.734;2024-01-30T04:07:27;99123.50;;;1.95;100.00
11448;BME280;43755;49.736;8.734;2024-01-30T04:09:29;99123.47;;;1.92;100.00
11448;BME280;43755;49.736;8.734;2024-01-30T04:11:29;99126.09;;;1.92;100.00
11448;BME280;43755;49.736;8.734;2024-01-30T04:13:31;99130.34;;;1.81;100.00
11448;BME280;43755;49.736;8.734;2024-01-30T04:15:34;99126.88;;;1.82;100.00
11448;BME280;43755;49.736;8.734;2024-01-30T04:17:37;99132.03;;;1.78;100.00
11448;BME280;43755;49.736;8.734;2024-01-30T04:19:38;99125.91;;;1.77;100.00
11448;BME280;43755;49.736;8.734;2024-01-30T04:21:39;99129.47;;;1.81;100.00
11448;BME280;43755;49.736;8.734;2024-01-30T04:23:41;99129.50;;;1.85;100.00
11448;BME280;43755;49.736;8.734;2024-01-30T04:25:42;99131.22;;;1.85;100.00
11448;BME280;43755;49.736;8.734;2024-01-30T04:27:44;99131.31;;;1.92;100.00
11448;BME280;43755;49.736;8.734;2024-01-30T04:29:45;99127.00;;;1.97;100.00
11448;BME280;43755;49.736;8.734;2024-01-30T04:31:48;99124.72;;;2.34;100.00
11448;BME280;43755;49.736;8.734;2024-01-30T04:33:48;99121.47;;;2.68;100.00
11448;BME280;43755;49.736;8.734;2024-01-30T04:35:50;99117.97;;;2.68;100.00
11448;BME280;43755;49.736;8.734;2024-01-30T04:37:52;99112.88;;;2.87;100.00
11448;BME280;43755;49.736;8.734;2024-01-30T04:39:53;99111.19;;;3.02;100.00
11448;BME280;43755;49.736;8.734;2024-01-30T04:41:55;99116.59;;;3.44;100.00
11448;BME280;43755;49.736;8.734;2024-01-30T04:43:56;99118.41;;;3.59;100.00
11448;BME280;43755;49.736;8.734;2024-01-30T04:45:58;99117.59;;;3.83;100.00
11448;BME280;43755;49.736;8.734;2024-01-30T04:48:00;99113.22;;;4.03;100.00
11448;BME280;43755;49.736;8.734;2024-01-30T04:50:02;99116.72;;;4.25;100.00
11448;BME280;43755;49.736;8.734;2024-01-30T04:52:05;99109.75;;;4.52;100.00
11448;BME280;43755;49.736;8.734;2024-01-30T04:54:06;99119.31;;;4.70;100.00
11448;BME280;43755;49.736;8.734;2024-01-30T04:56:08;99108.81;;;4.87;100.00
11448;BME280;43755;49.736;8.734;2024-01-30T04:58:09;99117.50;;;5.03;100.00
11448;BME280;43755;49.736;8.734;2024-01-30T05:00:11;99113.91;;;5.26;100.00
11448;BME280;43755;49.736;8.734;2024-01-30T05:02:12;99125.22;;;5.39;100.00
11448;BME280;43755;49.736;8.734;2024-01-30T05:04:15;99126.91;;;5.55;100.00
11448;BME280;43755;49.736;8.734;2024-01-30T05:06:24;99119.91;;;5.59;100.00
11448;BME280;43755;49.736;8.734;2024-01-30T05:08:25;99130.41;;;5.59;100.00
11448;BME280;43755;49.736;8.734;2024-01-30T05:10:27;99125.97;;;5.67;100.00
11448;BME280;43755;49.736;8.734;2024-01-30T05:12:28;99126.81;;;5.76;100.00
11448;BME280;43755;49.736;8.734;2024-01-30T05:14:30;99133.78;;;5.82;100.00
11448;BME280;43755;49.736;8.734;2024-01-30T05:16:31;99131.09;;;5.91;100.00
11448;BME280;43755;49.736;8.734;2024-01-30T05:18:33;99131.13;;;5.90;100.00
11448;BME280;43755;49.736;8.734;2024-01-30T05:20:35;99127.53;;;6.01;100.00
11448;BME280;43755;49.736;8.734;2024-01-30T05:22:37;99131.00;;;6.08;100.00
11448;BME280;43755;49.736;8.734;2024-01-30T05:24:38;99128.38;;;6.09;100.00
11448;BME280;43755;49.736;8.734;2024-01-30T05:26:40;99132.75;;;6.12;100.00
11448;BME280;43755;49.736;8.734;2024-01-30T05:28:41;99129.25;;;6.11;100.00
11448;BME280;43755;49.736;8.734;2024-01-30T05:30:44;99129.25;;;6.07;100.00
11448;BME280;43755;49.736;8.734;2024-01-30T05:32:46;99128.44;;;5.97;100.00
11448;BME280;43755;49.736;8.734;2024-01-30T05:34:47;99138.94;;;5.97;100.00
11448;BME280;43755;49.736;8.734;2024-01-30T05:36:51;99131.06;;;5.96;100.00
11448;BME280;43755;49.736;8.734;2024-01-30T05:38:53;99132.84;;;5.89;100.00
11448;BME280;43755;49.736;8.734;2024-01-30T05:40:54;99138.13;;;5.89;100.00
11448;BME280;43755;49.736;8.734;2024-01-30T05:42:58;99139.88;;;5.86;100.00
11448;BME280;43755;49.736;8.734;2024-01-30T05:45:01;99138.19;;;5.74;100.00
11448;BME280;43755;49.736;8.734;2024-01-30T05:47:02;99136.44;;;5.76;100.00
11448;BME280;43755;49.736;8.734;2024-01-30T05:49:04;99139.06;;;5.74;100.00
11448;BME280;43755;49.736;8.734;2024-01-30T05:51:06;99137.31;;;5.75;100.00
11448;BME280;43755;49.736;8.734;2024-01-30T05:53:09;99134.63;;;5.86;100.00
11448;BME280;43755;49.736;8.734;2024-01-30T05:55:11;99136.41;;;5.81;100.00
11448;BME280;43755;49.736;8.734;2024-01-30T05:57:12;99131.97;;;5.95;100.00
11448;BME280;43755;49.736;8.734;2024-01-30T05:59:14;99133.84;;;5.70;100.00
11448;BME280;43755;49.736;8.734;2024-01-30T06:01:15;99134.72;;;5.69;100.00
11448;BME280;43755;49.736;8.734;2024-01-30T06:03:16;99142.63;;;5.63;100.00
11448;BME280;43755;49.736;8.734;2024-01-30T06:05:17;99139.97;;;5.70;100.00
11448;BME280;43755;49.736;8.734;2024-01-30T06:07:18;99135.53;;;5.78;100.00
11448;BME280;43755;49.736;8.734;2024-01-30T06:09:21;99141.63;;;5.87;100.00
11448;BME280;43755;49.736;8.734;2024-01-30T06:11:22;99142.50;;;5.84;100.00
11448;BME280;43755;49.736;8.734;2024-01-30T06:13:23;99138.13;;;5.85;100.00
11448;BME280;43755;49.736;8.734;2024-01-30T06:15:24;99145.13;;;5.84;100.00
11448;BME280;43755;49.736;8.734;2024-01-30T06:17:26;99141.69;;;5.74;100.00
11448;BME280;43755;49.736;8.734;2024-01-30T06:19:27;99145.22;;;5.66;100.00
11448;BME280;43755;49.736;8.734;2024-01-30T06:21:29;99145.22;;;5.69;100.00
11448;BME280;43755;49.736;8.734;2024-01-30T06:23:30;99146.09;;;5.68;100.00
11448;BME280;43755;49.736;8.734;2024-01-30T06:25:32;99146.13;;;5.65;100.00
11448;BME280;43755;49.736;8.734;2024-01-30T06:27:34;99140.88;;;5.63;100.00
11448;BME280;43755;49.736;8.734;2024-01-30T06:29:35;99142.56;;;5.75;100.00
11448;BME280;43755;49.736;8.734;2024-01-30T06:31:40;99137.34;;;5.67;100.00
11448;BME280;43755;49.736;8.734;2024-01-30T06:33:41;99146.09;;;5.69;100.00
11448;BME280;43755;49.736;8.734;2024-01-30T06:35:43;99144.38;;;5.65;100.00
11448;BME280;43755;49.736;8.734;2024-01-30T06:37:45;99143.50;;;5.63;100.00
11448;BME280;43755;49.736;8.734;2024-01-30T06:39:47;99142.59;;;5.66;100.00
11448;BME280;43755;49.736;8.734;2024-01-30T06:41:49;99136.44;;;5.71;100.00
11448;BME280;43755;49.736;8.734;2024-01-30T06:43:52;99138.16;;;5.83;100.00
11448;BME280;43755;49.736;8.734;2024-01-30T06:45:53;99137.28;;;5.83;100.00
11448;BME280;43755;49.736;8.734;2024-01-30T06:47:54;99131.97;;;5.86;100.00
11448;BME280;43755;49.736;8.734;2024-01-30T06:49:56;99125.84;;;5.91;100.00
11448;BME280;43755;49.736;8.734;2024-01-30T06:51:57;99135.38;;;6.10;100.00
11448;BME280;43755;49.736;8.734;2024-01-30T06:53:59;99132.69;;;6.16;100.00
11448;BME280;43755;49.736;8.734;2024-01-30T06:55:59;99134.41;;;6.21;100.00
11448;BME280;43755;49.736;8.734;2024-01-30T06:58:02;99144.00;;;6.29;100.00
11448;BME280;43755;49.736;8.734;2024-01-30T07:00:04;99137.00;;;6.27;100.00
11448;BME280;43755;49.736;8.734;2024-01-30T07:02:05;99132.66;;;6.21;100.00
11448;BME280;43755;49.736;8.734;2024-01-30T07:04:08;99137.03;;;6.22;100.00
11448;BME280;43755;49.736;8.734;2024-01-30T07:06:09;99130.81;;;6.34;100.00
11448;BME280;43755;49.736;8.734;2024-01-30T07:08:11;99130.81;;;6.34;100.00
11448;BME280;43755;49.736;8.734;2024-01-30T07:10:12;99135.19;;;6.33;100.00
11448;BME280;43755;49.736;8.734;2024-01-30T07:12:13;99134.31;;;6.34;100.00
11448;BME280;43755;49.736;8.734;2024-01-30T07:14:16;99138.59;;;6.43;100.00
11448;BME280;43755;49.736;8.734;2024-01-30T07:16:18;99135.97;;;6.46;100.00
11448;BME280;43755;49.736;8.734;2024-01-30T07:18:19;99137.72;;;6.45;100.00
11448;BME280;43755;49.736;8.734;2024-01-30T07:20:21;99128.06;;;6.47;100.00
11448;BME280;43755;49.736;8.734;2024-01-30T07:22:22;99134.13;;;6.54;100.00
11448;BME280;43755;49.736;8.734;2024-01-30T07:24:23;99139.34;;;6.60;100.00
11448;BME280;43755;49.736;8.734;2024-01-30T07:26:25;99135.78;;;6.67;100.00
11448;BME280;43755;49.736;8.734;2024-01-30T07:28:26;99139.31;;;6.63;100.00
11448;BME280;43755;49.736;8.734;2024-01-30T07:30:29;99140.16;;;6.70;100.00
11448;BME280;43755;49.736;8.734;2024-01-30T07:32:30;99141.78;;;6.81;100.00
11448;BME280;43755;49.736;8.734;2024-01-30T07:34:32;99141.75;;;6.84;100.00
11448;BME280;43755;49.736;8.734;2024-01-30T07:36:33;99139.97;;;6.86;100.00
11448;BME280;43755;49.736;8.734;2024-01-30T07:38:34;99141.69;;;6.90;100.00
11448;BME280;43755;49.736;8.734;2024-01-30T07:40:36;99141.69;;;6.90;100.00
11448;BME280;43755;49.736;8.734;2024-01-30T07:42:37;99142.53;;;6.92;100.00
11448;BME280;43755;49.736;8.734;2024-01-30T07:44:38;99136.41;;;6.93;100.00
11448;BME280;43755;49.736;8.734;2024-01-30T07:46:41;99140.69;;;7.02;100.00
11448;BME280;43755;49.736;8.734;2024-01-30T07:48:42;99138.88;;;7.07;100.00
11448;BME280;43755;49.736;8.734;2024-01-30T07:50:44;99133.53;;;7.16;100.00
11448;BME280;43755;49.736;8.734;2024-01-30T07:52:45;99138.78;;;7.15;100.00
11448;BME280;43755;49.736;8.734;2024-01-30T07:54:49;99145.75;;;7.22;100.00
11448;BME280;43755;49.736;8.734;2024-01-30T07:56:50;99137.03;;;7.15;100.00
11448;BME280;43755;49.736;8.734;2024-01-30T07:58:51;99146.63;;;7.22;100.00
11448;BME280;43755;49.736;8.734;2024-01-30T08:00:52;99143.91;;;7.28;100.00
11448;BME280;43755;49.736;8.734;2024-01-30T08:02:55;99153.53;;;7.31;100.00
11448;BME280;43755;49.736;8.734;2024-01-30T08:04:56;99154.31;;;7.37;100.00
11448;BME280;43755;49.736;8.734;2024-01-30T08:06:56;99153.44;;;7.37;100.00
11448;BME280;43755;49.736;8.734;2024-01-30T08:08:58;99160.53;;;7.33;100.00
11448;BME280;43755;49.736;8.734;2024-01-30T08:10:59;99156.16;;;7.31;100.00
11448;BME280;43755;49.736;8.734;2024-01-30T08:13:01;99154.44;;;7.27;100.00
11448;BME280;43755;49.736;8.734;2024-01-30T08:15:03;99169.38;;;7.28;100.00
11448;BME280;43755;49.736;8.734;2024-01-30T08:17:04;99166.69;;;7.31;100.00
11448;BME280;43755;49.736;8.734;2024-01-30T08:19:09;99162.34;;;7.28;100.00
11448;BME280;43755;49.736;8.734;2024-01-30T08:21:10;99163.97;;;7.37;100.00
11448;BME280;43755;49.736;8.734;2024-01-30T08:23:11;99169.34;;;7.29;100.00
11448;BME280;43755;49.736;8.734;2024-01-30T08:25:13;99174.56;;;7.32;100.00
11448;BME280;43755;49.736;8.734;2024-01-30T08:27:14;99164.91;;;7.31;100.00
11448;BME280;43755;49.736;8.734;2024-01-30T08:29:16;99176.31;;;7.35;100.00
11448;BME280;43755;49.736;8.734;2024-01-30T08:31:17;99167.41;;;7.45;100.00
11448;BME280;43755;49.736;8.734;2024-01-30T08:33:18;99178.81;;;7.46;100.00
11448;BME280;43755;49.736;8.734;2024-01-30T08:35:21;99170.03;;;7.47;100.00
11448;BME280;43755;49.736;8.734;2024-01-30T08:37:22;99171.78;;;7.45;100.00
11448;BME280;43755;49.736;8.734;2024-01-30T08:39:24;99176.13;;;7.49;100.00
11448;BME280;43755;49.736;8.734;2024-01-30T08:41:24;99174.41;;;7.46;100.00
11448;BME280;43755;49.736;8.734;2024-01-30T08:43:26;99172.69;;;7.44;100.00
11448;BME280;43755;49.736;8.734;2024-01-30T08:45:27;99169.28;;;7.34;100.00
11448;BME280;43755;49.736;8.734;2024-01-30T08:47:29;99173.63;;;7.36;100.00
11448;BME280;43755;49.736;8.734;2024-01-30T08:49:30;99174.50;;;7.37;100.00
11448;BME280;43755;49.736;8.734;2024-01-30T08:51:33;99173.59;;;7.41;100.00
11448;BME280;43755;49.736;8.734;2024-01-30T08:53:34;99172.72;;;7.42;100.00
11448;BME280;43755;49.736;8.734;2024-01-30T08:55:36;99169.16;;;7.46;100.00
11448;BME280;43755;49.736;8.734;2024-01-30T08:57:39;99173.50;;;7.50;100.00
11448;BME280;43755;49.736;8.734;2024-01-30T08:59:40;99173.41;;;7.59;100.00
11448;BME280;43755;49.736;8.734;2024-01-30T09:01:41;99183.00;;;7.63;100.00
11448;BME280;43755;49.736;8.734;2024-01-30T09:03:42;99170.69;;;7.64;100.00
11448;BME280;43755;49.736;8.734;2024-01-30T09:05:45;99172.41;;;7.66;100.00
11448;BME280;43755;49.736;8.734;2024-01-30T09:07:48;99173.31;;;7.65;100.00
11448;BME280;43755;49.736;8.734;2024-01-30T09:09:49;99174.16;;;7.66;100.00
11448;BME280;43755;49.736;8.734;2024-01-30T09:11:51;99170.63;;;7.68;100.00
11448;BME280;43755;49.736;8.734;2024-01-30T09:13:52;99168.72;;;7.79;100.00
11448;BME280;43755;49.736;8.734;2024-01-30T09:15:54;99172.25;;;7.78;100.00
11448;BME280;43755;49.736;8.734;2024-01-30T09:17:56;99173.06;;;7.83;100.00
11448;BME280;43755;49.736;8.734;2024-01-30T09:19:57;99177.44;;;7.85;100.00
11448;BME280;43755;49.736;8.734;2024-01-30T09:21:58;99175.66;;;7.88;100.00
11448;BME280;43755;49.736;8.734;2024-01-30T09:24:03;99181.66;;;7.99;100.00
11448;BME280;43755;49.736;8.734;2024-01-30T09:26:05;99188.69;;;7.99;100.00
11448;BME280;43755;49.736;8.734;2024-01-30T09:28:06;99194.91;;;7.92;100.00
11448;BME280;43755;49.736;8.734;2024-01-30T09:30:08;99194.81;;;7.99;100.00
11448;BME280;43755;49.736;8.734;2024-01-30T09:32:10;99196.53;;;8.02;100.00
11448;BME280;43755;49.736;8.734;2024-01-30T09:34:11;99192.09;;;8.07;100.00
11448;BME280;43755;49.736;8.734;2024-01-30T09:36:12;99192.84;;;8.15;100.00
11448;BME280;43755;49.736;8.734;2024-01-30T09:38:15;99191.94;;;8.17;100.00
11448;BME280;43755;49.736;8.734;2024-01-30T09:40:18;99191.06;;;8.17;100.00
11448;BME280;43755;49.736;8.734;2024-01-30T09:42:26;99190.03;;;8.26;100.00
11448;BME280;43755;49.736;8.734;2024-01-30T09:44:29;99191.78;;;8.28;100.00
11448;BME280;43755;49.736;8.734;2024-01-30T09:46:31;99196.09;;;8.35;100.00
11448;BME280;43755;49.736;8.734;2024-01-30T09:48:34;99203.13;;;8.35;100.00
11448;BME280;43755;49.736;8.734;2024-01-30T09:50:36;99196.03;;;8.40;100.00
11448;BME280;43755;49.736;8.734;2024-01-30T09:52:38;99192.41;;;8.45;99.13
11448;BME280;43755;49.736;8.734;2024-01-30T09:54:41;99199.28;;;8.55;100.00
11448;BME280;43755;49.736;8.734;2024-01-30T09:56:43;99195.56;;;8.67;98.31
11448;BME280;43755;49.736;8.734;2024-01-30T09:58:45;99203.47;;;8.70;98.32
11448;BME280;43755;49.736;8.734;2024-01-30T10:00:46;99198.03;;;8.79;99.17
11448;BME280;43755;49.736;8.734;2024-01-30T10:02:47;99196.25;;;8.81;99.05
11448;BME280;43755;49.736;8.734;2024-01-30T10:04:50;99188.91;;;8.98;97.29
11448;BME280;43755;49.736;8.734;2024-01-30T10:06:50;99188.72;;;9.08;97.18
11448;BME280;43755;49.736;8.734;2024-01-30T10:08:52;99194.78;;;9.14;96.52
11448;BME280;43755;49.736;8.734;2024-01-30T10:10:52;99195.53;;;9.21;98.27
11448;BME280;43755;49.736;8.734;2024-01-30T10:12:55;99196.19;;;9.32;96.96
11448;BME280;43755;49.736;8.734;2024-01-30T10:14:56;99189.09;;;9.35;96.63
11448;BME280;43755;49.736;8.734;2024-01-30T10:16:58;99194.22;;;9.43;95.19
11448;BME280;43755;49.736;8.734;2024-01-30T10:18:59;99188.81;;;9.49;95.03
11448;BME280;43755;49.736;8.734;2024-01-30T10:21:00;99185.25;;;9.52;95.53
11448;BME280;43755;49.736;8.734;2024-01-30T10:23:01;99180.75;;;9.57;94.14
11448;BME280;43755;49.736;8.734;2024-01-30T10:25:03;99184.25;;;9.57;95.85
11448;BME280;43755;49.736;8.734;2024-01-30T10:27:05;99179.75;;;9.62;94.64
11448;BME280;43755;49.736;8.734;2024-01-30T10:29:08;99186.72;;;9.66;93.77
11448;BME280;43755;49.736;8.734;2024-01-30T10:31:09;99177.00;;;9.67;94.19
11448;BME280;43755;49.736;8.734;2024-01-30T10:33:10;99183.22;;;9.66;94.67
11448;BME280;43755;49.736;8.734;2024-01-30T10:35:10;99185.00;;;9.65;94.17
11448;BME280;43755;49.736;8.734;2024-01-30T10:37:12;99177.75;;;9.75;92.98
11448;BME280;43755;49.736;8.734;2024-01-30T10:39:17;99181.09;;;9.83;96.38
11448;BME280;43755;49.736;8.734;2024-01-30T10:41:23;99183.81;;;9.78;95.44
11448;BME280;43755;49.736;8.734;2024-01-30T10:43:31;99184.66;;;9.80;94.78
11448;BME280;43755;49.736;8.734;2024-01-30T10:45:35;99184.50;;;9.88;95.50